createdAt,value
2019-02-14T00:00:59.469Z,15.85
2019-02-14T00:03:27.082Z,11.45
2019-02-14T00:05:54.399Z,11.97
2019-02-14T00:08:21.893Z,17.65
2019-02-14T00:10:49.262Z,11.30
2019-02-14T00:13:16.581Z,11.97
2019-02-14T00:15:43.873Z,11.38
2019-02-14T00:18:11.302Z,11.22
2019-02-14T00:20:38.742Z,8.95
2019-02-14T00:23:06.239Z,6.53
2019-02-14T00:25:36.578Z,7.97
2019-02-14T00:28:03.888Z,11.35
2019-02-14T00:30:31.418Z,10.20
2019-02-14T00:32:59.094Z,8.10
2019-02-14T00:35:26.510Z,9.05
2019-02-14T00:37:53.824Z,10.30
2019-02-14T00:40:21.119Z,8.45
2019-02-14T00:42:48.577Z,12.25
2019-02-14T00:45:16.117Z,10.48
2019-02-14T00:47:43.582Z,9.65
2019-02-14T00:50:10.777Z,10.48
2019-02-14T00:52:38.065Z,11.25
2019-02-14T00:55:05.386Z,7.83
2019-02-14T00:57:32.776Z,11.73
2019-02-14T01:00:00.300Z,7.42
2019-02-14T01:02:27.813Z,10.48
2019-02-14T01:04:55.320Z,11.25
2019-02-14T01:07:23.698Z,10.93
2019-02-14T01:09:51.235Z,8.08
2019-02-14T01:12:18.826Z,11.43
2019-02-14T01:14:46.244Z,10.98
2019-02-14T01:17:13.654Z,9.85
2019-02-14T01:19:41.039Z,7.58
2019-02-14T01:22:08.474Z,10.85
2019-02-14T01:24:35.652Z,7.97
2019-02-14T01:27:03.217Z,12.68
2019-02-14T01:29:30.485Z,9.45
2019-02-14T01:31:57.827Z,10.10
2019-02-14T01:34:25.216Z,6.28
2019-02-14T01:36:52.494Z,9.95
2019-02-14T01:39:20.035Z,7.65
2019-02-14T01:41:47.353Z,10.70
2019-02-14T01:44:14.769Z,8.13
2019-02-14T01:46:41.999Z,11.03
2019-02-14T01:49:09.353Z,8.03
2019-02-14T01:51:36.683Z,7.30
2019-02-14T01:54:04.090Z,9.20
2019-02-14T01:56:31.527Z,9.63
2019-02-14T01:58:58.850Z,10.03
2019-02-14T02:01:27.346Z,14.40
2019-02-14T02:03:54.819Z,10.18
2019-02-14T02:06:22.308Z,12.63
2019-02-14T02:08:49.709Z,9.80
2019-02-14T02:11:17.063Z,9.08
2019-02-14T02:13:44.422Z,10.03
2019-02-14T02:16:11.692Z,15.63
2019-02-14T02:18:39.322Z,8.25
2019-02-14T02:21:06.744Z,12.50
2019-02-14T02:23:34.303Z,8.25
2019-02-14T02:26:01.686Z,8.38
2019-02-14T02:28:29.574Z,14.25
2019-02-14T02:30:57.058Z,9.80
2019-02-14T02:33:24.525Z,6.70
2019-02-14T02:36:00.231Z,8.18
2019-02-14T02:38:20.993Z,12.85
2019-02-14T02:40:48.455Z,8.50
2019-02-14T02:43:15.843Z,10.63
2019-02-14T02:45:43.024Z,10.13
2019-02-14T02:48:10.351Z,10.38
2019-02-14T02:50:37.814Z,11.28
2019-02-14T02:53:05.243Z,14.40
2019-02-14T02:55:32.552Z,14.55
2019-02-14T02:57:59.959Z,22.52
2019-02-14T03:00:27.456Z,15.58
2019-02-14T03:02:54.849Z,10.32
2019-02-14T03:05:22.123Z,13.05
2019-02-14T03:07:49.489Z,8.30
2019-02-14T03:10:16.906Z,8.48
2019-02-14T03:12:44.315Z,9.43
2019-02-14T03:15:12.096Z,8.08
2019-02-14T03:17:39.377Z,9.25
2019-02-14T03:20:08.290Z,9.28
2019-02-14T03:22:35.681Z,10.38
2019-02-14T03:25:03.822Z,10.35
2019-02-14T03:27:31.240Z,11.22
2019-02-14T03:29:59.697Z,10.15
2019-02-14T03:32:27.051Z,11.57
2019-02-14T03:34:54.491Z,11.93
2019-02-14T03:37:22.185Z,9.10
2019-02-14T03:39:49.618Z,9.25
2019-02-14T03:42:16.961Z,10.05
2019-02-14T03:44:44.303Z,8.70
2019-02-14T03:47:11.715Z,7.70
2019-02-14T03:49:39.001Z,12.37
2019-02-14T03:52:10.531Z,10.58
2019-02-14T03:54:38.226Z,14.10
2019-02-14T03:57:06.769Z,10.50
2019-02-14T03:59:34.261Z,6.33
2019-02-14T04:02:01.678Z,8.13
2019-02-14T04:04:29.318Z,9.78
2019-02-14T04:06:56.865Z,7.72
2019-02-14T04:09:24.267Z,9.98
2019-02-14T04:11:51.732Z,11.20
2019-02-14T04:14:19.101Z,7.40
2019-02-14T04:16:46.560Z,9.00
2019-02-14T04:19:13.901Z,13.62
2019-02-14T04:21:41.279Z,12.70
2019-02-14T04:24:08.714Z,13.43
2019-02-14T04:26:35.960Z,9.05
2019-02-14T04:29:03.336Z,12.75
2019-02-14T04:31:30.701Z,10.90
2019-02-14T04:33:57.902Z,11.18
2019-02-14T04:36:25.322Z,13.18
2019-02-14T04:38:52.677Z,11.10
2019-02-14T04:41:20.080Z,11.48
2019-02-14T04:43:47.605Z,11.43
2019-02-14T04:46:15.024Z,13.78
2019-02-14T04:48:42.506Z,13.72
2019-02-14T04:51:09.771Z,10.78
2019-02-14T04:53:37.323Z,13.10
2019-02-14T04:56:04.757Z,11.73
2019-02-14T04:58:32.128Z,9.28
2019-02-14T05:00:59.530Z,15.32
2019-02-14T05:03:26.994Z,15.68
2019-02-14T05:05:54.363Z,8.35
2019-02-14T05:08:22.960Z,14.75
2019-02-14T05:10:50.328Z,11.25
2019-02-14T05:13:20.384Z,9.63
2019-02-14T05:15:48.824Z,11.48
2019-02-14T05:18:16.184Z,12.65
2019-02-14T05:20:43.404Z,10.38
2019-02-14T05:23:10.855Z,11.03
2019-02-14T05:25:38.209Z,13.45
2019-02-14T05:28:05.558Z,13.48
2019-02-14T05:30:33.014Z,11.05
2019-02-14T05:33:00.478Z,13.88
2019-02-14T05:35:27.841Z,10.78
2019-02-14T05:37:55.318Z,12.60
2019-02-14T05:40:22.700Z,17.90
2019-02-14T05:42:50.390Z,14.85
2019-02-14T05:45:17.770Z,10.93
2019-02-14T05:47:45.160Z,19.25
2019-02-14T05:50:12.500Z,19.00
2019-02-14T05:52:40.004Z,28.07
2019-02-14T05:55:08.468Z,30.88
2019-02-14T05:57:35.848Z,36.03
2019-02-14T06:00:03.874Z,48.15
2019-02-14T06:02:32.429Z,56.48
2019-02-14T06:05:01.729Z,52.58
2019-02-14T06:07:29.184Z,54.98
2019-02-14T06:09:56.660Z,56.05
2019-02-14T06:12:24.057Z,53.55
2019-02-14T06:14:51.516Z,53.73
2019-02-14T06:17:18.811Z,45.05
2019-02-14T06:19:46.184Z,38.17
2019-02-14T06:22:13.457Z,32.05
2019-02-14T06:24:40.744Z,32.20
2019-02-14T06:27:08.138Z,30.85
2019-02-14T06:29:35.638Z,32.60
2019-02-14T06:32:03.039Z,24.95
2019-02-14T06:34:30.422Z,20.30
2019-02-14T06:36:57.923Z,17.55
2019-02-14T06:39:25.332Z,20.62
2019-02-14T06:41:52.950Z,16.95
2019-02-14T06:44:20.453Z,15.75
2019-02-14T06:46:48.968Z,18.55
2019-02-14T06:49:16.370Z,20.23
2019-02-14T06:51:43.753Z,18.32
2019-02-14T06:54:11.194Z,17.48
2019-02-14T06:56:38.615Z,16.82
2019-02-14T06:59:05.882Z,19.32
2019-02-14T07:01:33.227Z,15.55
2019-02-14T07:04:00.708Z,15.78
2019-02-14T07:06:28.085Z,18.60
2019-02-14T07:08:55.529Z,15.25
2019-02-14T07:11:22.743Z,14.23
2019-02-14T07:13:50.102Z,15.88
2019-02-14T07:16:17.575Z,16.17
2019-02-14T07:18:45.059Z,16.62
2019-02-14T07:21:12.470Z,18.02
2019-02-14T07:23:39.845Z,19.75
2019-02-14T07:26:07.218Z,23.07
2019-02-14T07:28:34.588Z,18.10
2019-02-14T07:31:01.973Z,14.60
2019-02-14T07:33:29.399Z,20.08
2019-02-14T07:35:56.780Z,17.92
2019-02-14T07:38:24.072Z,20.08
2019-02-14T07:40:52.431Z,20.60
2019-02-14T07:43:19.888Z,19.48
2019-02-14T07:45:47.163Z,16.67
2019-02-14T07:48:14.538Z,15.75
2019-02-14T07:50:41.886Z,13.95
2019-02-14T07:53:09.198Z,15.50
2019-02-14T07:55:36.572Z,17.30
2019-02-14T07:58:03.980Z,16.05
2019-02-14T08:00:31.442Z,16.02
2019-02-14T08:02:58.826Z,19.87
2019-02-14T08:05:26.246Z,19.48
2019-02-14T08:07:53.501Z,29.70
2019-02-14T08:10:20.902Z,18.15
2019-02-14T08:12:48.078Z,18.35
2019-02-14T08:15:15.491Z,24.50
2019-02-14T08:17:42.849Z,26.50
2019-02-14T08:20:10.552Z,26.23
2019-02-14T08:22:37.821Z,19.17
2019-02-14T08:25:06.626Z,24.87
2019-02-14T08:27:33.936Z,28.07
2019-02-14T08:30:01.285Z,23.92
2019-02-14T08:32:28.702Z,35.13
2019-02-14T08:34:56.015Z,26.07
2019-02-14T08:37:23.411Z,28.45
2019-02-14T08:39:50.786Z,28.67
2019-02-14T08:42:19.129Z,41.68
2019-02-14T08:44:46.609Z,35.50
2019-02-14T08:47:13.987Z,42.53
2019-02-14T08:49:41.409Z,41.33
2019-02-14T08:52:08.825Z,30.57
2019-02-14T08:54:36.250Z,34.30
2019-02-14T08:57:03.605Z,37.55
2019-02-14T08:59:31.882Z,30.23
2019-02-14T09:01:59.246Z,38.90
2019-02-14T09:04:26.726Z,31.23
2019-02-14T09:06:54.261Z,31.65
2019-02-14T09:09:21.596Z,28.62
2019-02-14T09:11:49.052Z,32.20
2019-02-14T09:14:16.434Z,25.02
2019-02-14T09:16:43.911Z,28.10
2019-02-14T09:19:11.109Z,29.85
2019-02-14T09:21:38.522Z,23.55
2019-02-14T09:24:05.763Z,34.60
2019-02-14T09:26:33.118Z,24.00
2019-02-14T09:29:00.406Z,24.87
2019-02-14T09:31:27.678Z,25.43
2019-02-14T09:33:55.051Z,24.85
2019-02-14T09:36:22.443Z,20.50
2019-02-14T09:38:49.870Z,23.92
2019-02-14T09:41:17.251Z,25.82
2019-02-14T09:43:44.627Z,21.77
2019-02-14T09:46:12.053Z,20.10
2019-02-14T09:48:39.477Z,17.27
2019-02-14T09:51:06.977Z,19.87
2019-02-14T09:53:34.445Z,21.37
2019-02-14T09:56:01.799Z,21.73
2019-02-14T09:58:29.435Z,18.55
2019-02-14T10:00:56.863Z,20.77
2019-02-14T10:03:24.236Z,19.95
2019-02-14T10:05:51.605Z,23.47
2019-02-14T10:08:19.055Z,18.42
2019-02-14T10:10:46.783Z,20.95
2019-02-14T10:13:14.148Z,19.60
2019-02-14T10:15:41.438Z,21.80
2019-02-14T10:18:08.788Z,22.42
2019-02-14T10:20:36.225Z,23.38
2019-02-14T10:23:03.639Z,19.35
2019-02-14T10:25:31.007Z,19.92
2019-02-14T10:27:58.540Z,22.17
2019-02-14T10:30:25.889Z,25.92
2019-02-14T10:32:53.043Z,18.48
2019-02-14T10:35:20.399Z,19.55
2019-02-14T10:37:47.745Z,23.73
2019-02-14T10:40:15.050Z,24.72
2019-02-14T10:42:42.504Z,25.32
2019-02-14T10:45:11.852Z,20.45
2019-02-14T10:47:39.165Z,20.05
2019-02-14T10:50:07.700Z,21.12
2019-02-14T10:52:35.078Z,20.05
2019-02-14T10:55:02.809Z,23.07
2019-02-14T10:57:30.154Z,20.77
2019-02-14T10:59:57.798Z,21.73
2019-02-14T11:02:25.174Z,19.75
2019-02-14T11:04:52.600Z,22.00
2019-02-14T11:07:20.094Z,20.95
2019-02-14T11:09:47.331Z,20.15
2019-02-14T11:12:14.760Z,19.05
2019-02-14T11:14:42.022Z,19.92
2019-02-14T11:17:09.418Z,21.95
2019-02-14T11:19:36.795Z,26.40
2019-02-14T11:22:04.055Z,22.98
2019-02-14T11:24:31.314Z,20.43
2019-02-14T11:26:58.649Z,20.52
2019-02-14T11:29:26.090Z,30.40
2019-02-14T11:31:53.563Z,30.37
2019-02-14T11:34:20.936Z,24.60
2019-02-14T11:36:48.359Z,27.77
2019-02-14T11:39:15.766Z,25.25
2019-02-14T11:41:43.098Z,23.92
2019-02-14T11:44:10.453Z,24.20
2019-02-14T11:46:37.650Z,22.58
2019-02-14T11:49:04.980Z,24.98
2019-02-14T11:51:32.355Z,27.40
2019-02-14T11:53:59.790Z,22.62
2019-02-14T11:56:27.158Z,21.48
2019-02-14T11:58:54.617Z,26.35
2019-02-14T12:01:21.941Z,23.73
2019-02-14T12:03:49.370Z,19.85
2019-02-14T12:06:17.738Z,22.48
2019-02-14T12:08:57.778Z,20.77
2019-02-14T12:11:14.589Z,26.48
2019-02-14T12:13:41.974Z,25.15
2019-02-14T12:16:09.608Z,22.42
2019-02-14T12:18:36.754Z,24.57
2019-02-14T12:21:03.889Z,22.35
2019-02-14T12:23:31.350Z,28.77
2019-02-14T12:25:58.659Z,29.07
2019-02-14T12:28:26.180Z,26.85
2019-02-14T12:30:53.598Z,28.77
2019-02-14T12:33:20.882Z,30.05
2019-02-14T12:35:48.274Z,25.55
2019-02-14T12:38:15.646Z,30.48
2019-02-14T12:40:43.014Z,34.10
2019-02-14T12:43:10.291Z,30.92
2019-02-14T12:45:37.790Z,33.67
2019-02-14T12:48:05.236Z,31.45
2019-02-14T12:50:32.600Z,33.88
2019-02-14T12:52:59.936Z,31.55
2019-02-14T12:55:27.228Z,32.48
2019-02-14T12:57:54.614Z,35.45
2019-02-14T13:00:22.063Z,32.40
2019-02-14T13:02:49.392Z,41.40
2019-02-14T13:05:16.807Z,30.35
2019-02-14T13:07:44.140Z,29.00
2019-02-14T13:10:11.622Z,27.27
2019-02-14T13:12:39.125Z,30.27
2019-02-14T13:15:08.963Z,30.20
2019-02-14T13:17:36.476Z,28.62
2019-02-14T13:20:04.013Z,32.93
2019-02-14T13:22:31.380Z,25.43
2019-02-14T13:24:58.658Z,37.60
2019-02-14T13:27:26.092Z,36.13
2019-02-14T13:29:53.574Z,41.05
2019-02-14T13:32:20.922Z,37.85
2019-02-14T13:34:48.284Z,41.30
2019-02-14T13:37:15.556Z,29.50
2019-02-14T13:39:43.058Z,26.52
2019-02-14T13:42:10.449Z,26.90
2019-02-14T13:44:37.838Z,25.40
2019-02-14T13:47:05.243Z,25.75
2019-02-14T13:49:32.946Z,24.95
2019-02-14T13:52:00.600Z,32.40
2019-02-14T13:54:27.915Z,23.67
2019-02-14T13:56:55.054Z,24.55
2019-02-14T13:59:22.444Z,27.75
2019-02-14T14:01:49.858Z,31.17
2019-02-14T14:04:17.314Z,28.80
2019-02-14T14:06:44.796Z,27.50
2019-02-14T14:09:12.281Z,25.77
2019-02-14T14:11:39.639Z,27.17
2019-02-14T14:14:07.013Z,26.95
2019-02-14T14:16:34.398Z,25.08
2019-02-14T14:19:06.320Z,25.43
2019-02-14T14:21:30.820Z,29.15
2019-02-14T14:23:58.253Z,34.95
2019-02-14T14:26:25.635Z,33.13
2019-02-14T14:28:52.981Z,32.53
2019-02-14T14:31:20.385Z,32.33
2019-02-14T14:33:47.718Z,38.25
2019-02-14T14:36:15.024Z,39.48
2019-02-14T14:38:42.516Z,44.63
2019-02-14T14:41:10.054Z,36.28
2019-02-14T14:43:49.005Z,32.48
2019-02-14T14:46:23.252Z,29.37
2019-02-14T14:48:50.571Z,28.95
2019-02-14T14:51:17.976Z,26.80
2019-02-14T14:53:45.406Z,26.57
2019-02-14T14:56:12.835Z,27.05
2019-02-14T14:58:40.310Z,27.75
2019-02-14T15:01:07.574Z,25.95
2019-02-14T15:03:35.029Z,29.32
2019-02-14T15:06:02.435Z,24.67
2019-02-14T15:08:29.823Z,31.02
2019-02-14T15:10:58.014Z,20.27
2019-02-14T15:13:25.338Z,26.90
2019-02-14T15:15:52.738Z,29.30
2019-02-14T15:18:20.193Z,22.17
2019-02-14T15:20:47.682Z,32.03
2019-02-14T15:23:14.992Z,20.75
2019-02-14T15:25:42.394Z,30.25
2019-02-14T15:28:09.771Z,24.40
2019-02-14T15:30:37.198Z,32.00
2019-02-14T15:33:04.540Z,17.17
2019-02-14T15:35:31.963Z,25.30
2019-02-14T15:37:59.297Z,22.25
2019-02-14T15:40:26.674Z,24.87
2019-02-14T15:42:54.144Z,22.70
2019-02-14T15:45:21.495Z,22.37
2019-02-14T15:47:48.859Z,26.25
2019-02-14T15:50:16.282Z,26.87
2019-02-14T15:52:43.680Z,23.77
2019-02-14T15:55:11.003Z,22.35
2019-02-14T15:57:40.449Z,26.68
2019-02-14T16:00:10.510Z,22.75
2019-02-14T16:02:37.355Z,26.52
2019-02-14T16:05:04.943Z,21.60
2019-02-14T16:07:32.159Z,26.12
2019-02-14T16:10:03.320Z,24.02
2019-02-14T16:12:30.276Z,18.90
2019-02-14T16:14:57.430Z,18.52
2019-02-14T16:17:24.843Z,20.75
2019-02-14T16:19:52.108Z,21.02
2019-02-14T16:22:19.588Z,25.65
2019-02-14T16:24:47.091Z,18.00
2019-02-14T16:27:14.498Z,24.90
2019-02-14T16:29:41.861Z,23.90
2019-02-14T16:32:10.410Z,20.32
2019-02-14T16:34:37.819Z,20.82
2019-02-14T16:37:05.413Z,17.98
2019-02-14T16:39:32.821Z,14.30
2019-02-14T16:42:00.114Z,15.65
2019-02-14T16:44:27.473Z,13.75
2019-02-14T16:46:54.720Z,16.73
2019-02-14T16:49:22.120Z,14.78
2019-02-14T16:51:49.599Z,13.45
2019-02-14T16:54:16.835Z,13.62
2019-02-14T16:56:44.163Z,14.70
2019-02-14T16:59:11.503Z,13.45
2019-02-14T17:01:39.281Z,14.07
2019-02-14T17:04:07.179Z,12.10
2019-02-14T17:06:35.581Z,16.97
2019-02-14T17:09:05.033Z,14.58
2019-02-14T17:11:34.472Z,13.88
2019-02-14T17:14:01.990Z,11.70
2019-02-14T17:16:38.996Z,12.33
2019-02-14T17:19:09.875Z,11.78
2019-02-14T17:21:37.513Z,17.67
2019-02-14T17:24:05.226Z,13.43
2019-02-14T17:26:32.620Z,15.43
2019-02-14T17:29:00.074Z,18.40
2019-02-14T17:31:27.330Z,11.00
2019-02-14T17:33:55.641Z,12.23
2019-02-14T17:36:22.989Z,11.88
2019-02-14T17:38:50.356Z,12.40
2019-02-14T17:41:17.844Z,12.30
2019-02-14T17:43:45.404Z,16.57
2019-02-14T17:46:12.802Z,15.43
2019-02-14T17:48:40.308Z,13.45
2019-02-14T17:51:07.790Z,75.85
2019-02-14T17:53:35.193Z,46.02
2019-02-14T17:56:02.586Z,22.82
2019-02-14T17:58:30.140Z,18.57
2019-02-14T18:00:57.514Z,17.90
2019-02-14T18:03:25.157Z,13.98
2019-02-14T18:05:52.571Z,11.78
2019-02-14T18:08:20.071Z,13.05
2019-02-14T18:10:54.734Z,12.47
2019-02-14T18:13:17.008Z,12.63
2019-02-14T18:15:44.339Z,19.52
2019-02-14T18:18:12.902Z,11.10
2019-02-14T18:20:40.315Z,14.33
2019-02-14T18:23:07.746Z,13.13
2019-02-14T18:25:35.218Z,10.70
2019-02-14T18:28:02.644Z,10.75
2019-02-14T18:30:30.137Z,11.88
2019-02-14T18:32:57.658Z,11.73
2019-02-14T18:35:25.101Z,15.20
2019-02-14T18:37:52.381Z,16.52
2019-02-14T18:40:19.826Z,12.47
2019-02-14T18:42:47.342Z,15.18
2019-02-14T18:45:14.707Z,15.70
2019-02-14T18:47:42.278Z,15.85
2019-02-14T18:50:10.082Z,13.95
2019-02-14T18:52:37.663Z,13.13
2019-02-14T18:55:05.459Z,15.55
2019-02-14T18:57:32.950Z,15.05
2019-02-14T19:00:00.443Z,16.67
2019-02-14T19:02:27.950Z,14.40
2019-02-14T19:04:55.360Z,12.90
2019-02-14T19:07:22.777Z,18.32
2019-02-14T19:09:50.237Z,14.85
2019-02-14T19:12:17.691Z,17.23
2019-02-14T19:14:45.027Z,12.75
2019-02-14T19:17:12.395Z,16.40
2019-02-14T19:19:41.010Z,20.92
2019-02-14T19:22:08.784Z,31.12
2019-02-14T19:24:36.254Z,22.67
2019-02-14T19:27:03.655Z,20.57
2019-02-14T19:29:31.057Z,22.55
2019-02-14T19:31:58.519Z,25.88
2019-02-14T19:34:25.870Z,19.25
2019-02-14T19:36:53.310Z,19.12
2019-02-14T19:39:20.783Z,14.93
2019-02-14T19:41:48.185Z,16.37
2019-02-14T19:44:15.655Z,20.88
2019-02-14T19:46:43.017Z,25.25
2019-02-14T19:49:10.442Z,23.40
2019-02-14T19:51:38.410Z,21.37
2019-02-14T19:54:05.727Z,24.90
2019-02-14T19:56:33.155Z,22.02
2019-02-14T19:59:01.238Z,17.65
2019-02-14T20:01:28.612Z,25.32
2019-02-14T20:03:56.070Z,20.20
2019-02-14T20:06:23.533Z,22.37
2019-02-14T20:08:51.012Z,23.05
2019-02-14T20:11:18.499Z,28.57
2019-02-14T20:13:49.463Z,20.77
2019-02-14T20:16:15.344Z,20.08
2019-02-14T20:18:42.818Z,17.30
2019-02-14T20:21:10.316Z,24.90
2019-02-14T20:23:37.639Z,19.95
2019-02-14T20:26:05.082Z,19.67
2019-02-14T20:28:32.578Z,18.55
2019-02-14T20:30:59.995Z,25.62
2019-02-14T20:33:27.566Z,22.52
2019-02-14T20:35:55.051Z,22.62
2019-02-14T20:38:22.458Z,22.42
2019-02-14T20:40:50.128Z,16.52
2019-02-14T20:43:17.509Z,17.70
2019-02-14T20:45:44.950Z,15.50
2019-02-14T20:48:12.467Z,20.40
2019-02-14T20:50:40.019Z,13.65
2019-02-14T20:53:07.361Z,16.45
2019-02-14T20:55:34.928Z,14.13
2019-02-14T20:58:02.334Z,16.95
2019-02-14T21:00:35.652Z,19.35
2019-02-14T21:03:03.187Z,15.43
2019-02-14T21:05:30.676Z,17.98
2019-02-14T21:07:58.065Z,17.55
2019-02-14T21:10:25.635Z,17.75
2019-02-14T21:12:53.000Z,17.05
2019-02-14T21:15:20.587Z,17.50
2019-02-14T21:17:48.061Z,16.25
2019-02-14T21:20:15.518Z,16.77
2019-02-14T21:22:43.227Z,13.58
2019-02-14T21:25:10.625Z,18.50
2019-02-14T21:27:38.164Z,17.73
2019-02-14T21:30:06.206Z,18.42
2019-02-14T21:32:33.903Z,18.75
2019-02-14T21:35:01.318Z,18.30
2019-02-14T21:37:29.044Z,18.90
2019-02-14T21:39:56.523Z,16.12
2019-02-14T21:42:29.077Z,17.37
2019-02-14T21:44:53.585Z,19.32
2019-02-14T21:47:21.055Z,18.10
2019-02-14T21:49:48.621Z,18.35
2019-02-14T21:52:16.148Z,16.07
2019-02-14T21:54:43.671Z,19.73
2019-02-14T21:57:11.101Z,17.02
2019-02-14T21:59:38.610Z,17.05
2019-02-14T22:02:06.655Z,20.88
2019-02-14T22:04:34.683Z,19.00
2019-02-14T22:07:02.150Z,18.75
2019-02-14T22:09:29.595Z,18.35
2019-02-14T22:11:57.148Z,19.52
2019-02-14T22:14:24.767Z,16.73
2019-02-14T22:16:51.953Z,18.37
2019-02-14T22:19:19.766Z,19.07
2019-02-14T22:21:54.381Z,18.77
2019-02-14T22:24:21.967Z,15.83
2019-02-14T22:26:49.230Z,17.95
2019-02-14T22:29:16.567Z,16.60
2019-02-14T22:31:44.041Z,16.77
2019-02-14T22:34:11.446Z,19.48
2019-02-14T22:36:38.848Z,17.02
2019-02-14T22:39:06.130Z,16.45
2019-02-14T22:41:35.492Z,16.40
2019-02-14T22:44:02.931Z,18.05
2019-02-14T22:46:30.298Z,18.92
2019-02-14T22:48:57.815Z,19.77
2019-02-14T22:51:25.122Z,16.00
2019-02-14T22:53:52.538Z,18.80
2019-02-14T22:56:19.741Z,16.70
2019-02-14T22:58:47.099Z,20.30
2019-02-14T23:01:14.722Z,19.02
2019-02-14T23:03:42.232Z,18.10
2019-02-14T23:06:09.520Z,17.73
2019-02-14T23:08:37.061Z,15.08
2019-02-14T23:11:04.516Z,19.92
2019-02-14T23:13:31.888Z,18.10
2019-02-14T23:15:59.095Z,16.30
2019-02-14T23:18:26.469Z,19.27
2019-02-14T23:20:53.827Z,17.70
2019-02-14T23:23:21.289Z,18.30
2019-02-14T23:25:48.674Z,16.35
2019-02-14T23:28:16.046Z,15.18
2019-02-14T23:30:43.474Z,21.60
2019-02-14T23:33:10.897Z,15.80
2019-02-14T23:35:38.340Z,17.10
2019-02-14T23:38:05.752Z,15.80
2019-02-14T23:40:33.179Z,17.98
2019-02-14T23:43:04.659Z,18.70
2019-02-14T23:45:29.758Z,17.27
2019-02-14T23:47:57.190Z,16.27
2019-02-14T23:50:24.549Z,20.68
2019-02-14T23:52:51.931Z,18.32
2019-02-14T23:55:19.336Z,17.73
2019-02-14T23:57:46.781Z,23.98
